createdAt,value
2023-11-15T00:01:46.425Z,96435.47
2023-11-15T00:04:13.653Z,96450.69
2023-11-15T00:06:40.323Z,96442.50
2023-11-15T00:09:07.418Z,96462.44
2023-11-15T00:11:35.103Z,96454.66
2023-11-15T00:14:01.600Z,96463.94
2023-11-15T00:16:28.016Z,96464.56
2023-11-15T00:18:54.681Z,96477.53
2023-11-15T00:21:21.597Z,96479.50
2023-11-15T00:23:47.945Z,96486.22
2023-11-15T00:26:14.314Z,96486.22
2023-11-15T00:28:40.863Z,96475.09
2023-11-15T00:31:07.282Z,96481.19
2023-11-15T00:33:33.738Z,96488.97
2023-11-15T00:36:00.406Z,96496.88
2023-11-15T00:38:30.130Z,96489.56
2023-11-15T00:40:56.957Z,96505.56
2023-11-15T00:43:23.276Z,96507.25
2023-11-15T00:45:51.981Z,96521.44
2023-11-15T00:48:18.721Z,96522.34
2023-11-15T00:50:45.169Z,96534.84
2023-11-15T00:53:11.515Z,96533.47
2023-11-15T00:55:37.963Z,96540.31
2023-11-15T00:58:05.032Z,96549.78
2023-11-15T01:00:39.670Z,96533.63
2023-11-15T01:03:06.631Z,96548.41
2023-11-15T01:05:33.177Z,96547.66
2023-11-15T01:07:59.565Z,96554.50
2023-11-15T01:10:26.029Z,96558.03
2023-11-15T01:12:52.699Z,96581.03
2023-11-15T01:15:20.162Z,96575.88
2023-11-15T01:17:46.850Z,96585.59
2023-11-15T01:20:13.909Z,96583.63
2023-11-15T01:22:41.077Z,96585.91
2023-11-15T01:25:07.867Z,96586.84
2023-11-15T01:27:34.279Z,96589.44
2023-11-15T01:30:00.623Z,96590.94
2023-11-15T01:32:27.298Z,96584.69
2023-11-15T01:34:53.713Z,96595.03
2023-11-15T01:37:20.056Z,96596.59
2023-11-15T01:39:46.469Z,96619.56
2023-11-15T01:42:12.933Z,96615.59
2023-11-15T01:44:39.292Z,96613.78
2023-11-15T01:47:06.143Z,96621.69
2023-11-15T01:49:33.118Z,96616.50
2023-11-15T01:51:59.938Z,96615.88
2023-11-15T01:54:26.987Z,96616.25
2023-11-15T01:56:53.825Z,96617.75
2023-11-15T01:59:20.388Z,96631.13
2023-11-15T02:01:48.489Z,96633.38
2023-11-15T02:04:14.934Z,96640.72
2023-11-15T02:06:41.520Z,96632.16
2023-11-15T02:09:07.880Z,96643.91
2023-11-15T02:11:34.338Z,96656.44
2023-11-15T02:14:00.800Z,96646.69
2023-11-15T02:16:27.231Z,96642.56
2023-11-15T02:18:53.614Z,96653.84
2023-11-15T02:21:19.957Z,96655.25
2023-11-15T02:23:47.179Z,96643.06
2023-11-15T02:26:14.019Z,96659.09
2023-11-15T02:28:40.891Z,96658.91
2023-11-15T02:31:07.284Z,96655.66
2023-11-15T02:33:33.880Z,96648.31
2023-11-15T02:36:00.508Z,96660.28
2023-11-15T02:38:26.850Z,96655.84
2023-11-15T02:40:53.995Z,96662.50
2023-11-15T02:43:20.334Z,96667.31
2023-11-15T02:45:46.663Z,96657.13
2023-11-15T02:48:13.158Z,96652.69
2023-11-15T02:50:39.919Z,96651.16
2023-11-15T02:53:06.394Z,96667.16
2023-11-15T02:55:32.745Z,96666.84
2023-11-15T02:58:01.625Z,96668.69
2023-11-15T03:00:30.134Z,96666.38
2023-11-15T03:02:56.605Z,96675.53
2023-11-15T03:05:23.209Z,96678.91
2023-11-15T03:07:49.869Z,96678.13
2023-11-15T03:10:16.534Z,96684.72
2023-11-15T03:12:43.249Z,96679.94
2023-11-15T03:15:09.809Z,96688.19
2023-11-15T03:17:36.278Z,96686.06
2023-11-15T03:20:03.173Z,96694.31
2023-11-15T03:22:29.496Z,96693.69
2023-11-15T03:24:55.886Z,96691.56
2023-11-15T03:27:22.282Z,96698.41
2023-11-15T03:29:49.738Z,96690.19
2023-11-15T03:32:16.370Z,96703.94
2023-11-15T03:34:43.219Z,96717.78
2023-11-15T03:37:10.334Z,96722.53
2023-11-15T03:39:38.816Z,96723.44
2023-11-15T03:42:06.168Z,96735.47
2023-11-15T03:44:33.399Z,96738.25
2023-11-15T03:46:59.962Z,96740.53
2023-11-15T03:49:26.372Z,96739.63
2023-11-15T03:51:52.688Z,96745.41
2023-11-15T03:54:19.050Z,96751.19
2023-11-15T03:56:45.381Z,96746.59
2023-11-15T03:59:11.754Z,96746.28
2023-11-15T04:01:45.371Z,96758.34
2023-11-15T04:04:18.154Z,96756.97
2023-11-15T04:06:44.553Z,96759.25
2023-11-15T04:09:11.913Z,96767.81
2023-11-15T04:11:40.237Z,96775.00
2023-11-15T04:14:07.275Z,96776.47
2023-11-15T04:16:33.696Z,96788.84
2023-11-15T04:19:00.124Z,96790.84
2023-11-15T04:21:30.042Z,96790.97
2023-11-15T04:23:56.440Z,96804.38
2023-11-15T04:26:23.219Z,96794.91
2023-11-15T04:28:50.171Z,96802.88
2023-11-15T04:31:16.652Z,96811.25
2023-11-15T04:33:43.005Z,96812.63
2023-11-15T04:36:11.732Z,96809.25
2023-11-15T04:38:38.529Z,96820.25
2023-11-15T04:41:06.568Z,96813.25
2023-11-15T04:43:32.903Z,96821.22
2023-11-15T04:45:59.411Z,96827.13
2023-11-15T04:48:26.449Z,96829.06
2023-11-15T04:50:52.947Z,96821.91
2023-11-15T04:53:19.289Z,96836.75
2023-11-15T04:55:46.088Z,96847.28
2023-11-15T04:58:14.762Z,96835.34
2023-11-15T05:00:41.109Z,96828.81
2023-11-15T05:03:07.544Z,96839.91
2023-11-15T05:05:33.979Z,96840.38
2023-11-15T05:08:00.499Z,96843.28
2023-11-15T05:10:27.027Z,96841.94
2023-11-15T05:12:53.406Z,96855.03
2023-11-15T05:15:19.790Z,96855.63
2023-11-15T05:17:46.188Z,96868.09
2023-11-15T05:20:12.703Z,96855.88
2023-11-15T05:22:39.174Z,96857.59
2023-11-15T05:25:07.075Z,96870.09
2023-11-15T05:27:34.118Z,96872.06
2023-11-15T05:30:01.279Z,96874.63
2023-11-15T05:32:27.911Z,96890.50
2023-11-15T05:34:54.345Z,96884.56
2023-11-15T05:37:20.714Z,96895.44
2023-11-15T05:39:47.044Z,96892.59
2023-11-15T05:42:13.382Z,96882.00
2023-11-15T05:44:39.755Z,96892.06
2023-11-15T05:47:06.095Z,96882.47
2023-11-15T05:49:32.421Z,96892.31
2023-11-15T05:51:59.910Z,96902.38
2023-11-15T05:54:26.261Z,96904.94
2023-11-15T05:56:52.885Z,96897.13
2023-11-15T05:59:20.534Z,96904.16
2023-11-15T06:01:46.902Z,96916.69
2023-11-15T06:04:13.340Z,96918.22
2023-11-15T06:06:39.699Z,96923.22
2023-11-15T06:09:06.093Z,96919.47
2023-11-15T06:11:32.451Z,96937.78
2023-11-15T06:13:58.828Z,96937.44
2023-11-15T06:16:25.689Z,96939.09
2023-11-15T06:18:52.877Z,96933.41
2023-11-15T06:21:21.779Z,96941.69
2023-11-15T06:23:48.142Z,96948.97
2023-11-15T06:26:15.525Z,96950.94
2023-11-15T06:28:41.976Z,96953.38
2023-11-15T06:31:08.375Z,96951.81
2023-11-15T06:33:34.966Z,96939.22
2023-11-15T06:36:03.142Z,96933.28
2023-11-15T06:38:29.578Z,96940.41
2023-11-15T06:41:00.098Z,96944.94
2023-11-15T06:43:27.380Z,96951.34
2023-11-15T06:45:53.834Z,96959.44
2023-11-15T06:48:20.302Z,96968.91
2023-11-15T06:50:46.689Z,96970.28
2023-11-15T06:53:14.198Z,96974.88
2023-11-15T06:55:40.637Z,96959.31
2023-11-15T06:58:08.831Z,96979.03
2023-11-15T07:00:35.232Z,96982.22
2023-11-15T07:03:04.685Z,96979.47
2023-11-15T07:05:32.460Z,96972.50
2023-11-15T07:07:58.842Z,96975.66
2023-11-15T07:10:25.174Z,96981.56
2023-11-15T07:12:55.081Z,96988.88
2023-11-15T07:15:24.214Z,96987.47
2023-11-15T07:17:50.594Z,96994.66
2023-11-15T07:20:21.616Z,96987.28
2023-11-15T07:22:48.564Z,96992.34
2023-11-15T07:25:15.561Z,96999.97
2023-11-15T07:27:41.943Z,97004.72
2023-11-15T07:30:09.329Z,97002.06
2023-11-15T07:32:35.928Z,96997.81
2023-11-15T07:35:02.322Z,97004.97
2023-11-15T07:37:28.783Z,97010.47
2023-11-15T07:39:55.109Z,97017.34
2023-11-15T07:42:21.435Z,97020.66
2023-11-15T07:44:50.049Z,97021.44
2023-11-15T07:47:18.162Z,97040.88
2023-11-15T07:49:45.261Z,97043.94
2023-11-15T07:52:14.454Z,97040.00
2023-11-15T07:54:40.997Z,97033.09
2023-11-15T07:57:08.805Z,97035.06
2023-11-15T07:59:35.779Z,97036.03
2023-11-15T08:02:02.131Z,97035.81
2023-11-15T08:04:28.577Z,97041.19
2023-11-15T08:06:55.711Z,97054.75
2023-11-15T08:09:33.216Z,97049.31
2023-11-15T08:12:00.177Z,97058.88
2023-11-15T08:14:27.308Z,97064.56
2023-11-15T08:16:55.617Z,97065.59
2023-11-15T08:19:22.021Z,97064.69
2023-11-15T08:21:48.702Z,97069.44
2023-11-15T08:24:21.872Z,97067.19
2023-11-15T08:26:49.255Z,97062.66
2023-11-15T08:29:15.583Z,97070.25
2023-11-15T08:31:44.518Z,97075.91
2023-11-15T08:34:11.554Z,97064.28
2023-11-15T08:36:39.226Z,97076.25
2023-11-15T08:39:12.352Z,97073.06
2023-11-15T08:41:39.270Z,97067.38
2023-11-15T08:44:05.972Z,97079.31
2023-11-15T08:46:34.367Z,97078.84
2023-11-15T08:49:01.702Z,97070.63
2023-11-15T08:51:30.298Z,97083.09
2023-11-15T08:53:58.450Z,97077.06
2023-11-15T08:56:24.798Z,97097.66
2023-11-15T08:58:51.137Z,97087.44
2023-11-15T09:01:18.183Z,97094.22
2023-11-15T09:03:46.214Z,97097.28
2023-11-15T09:06:13.273Z,97087.16
2023-11-15T09:08:39.826Z,97090.53
2023-11-15T09:11:06.429Z,97096.16
2023-11-15T09:13:34.190Z,97098.50
2023-11-15T09:16:00.768Z,97097.28
2023-11-15T09:18:28.773Z,97108.34
2023-11-15T09:20:55.223Z,97104.94
2023-11-15T09:23:28.802Z,97118.50
2023-11-15T09:25:59.831Z,97112.91
2023-11-15T09:28:26.282Z,97116.72
2023-11-15T09:30:53.724Z,97115.78
2023-11-15T09:33:21.742Z,97131.53
2023-11-15T09:35:54.970Z,97123.31
2023-11-15T09:38:26.941Z,97126.28
2023-11-15T09:40:53.281Z,97130.53
2023-11-15T09:43:20.801Z,97142.00
2023-11-15T09:45:48.850Z,97138.03
2023-11-15T09:48:15.827Z,97147.97
2023-11-15T09:50:42.821Z,97152.50
2023-11-15T09:53:09.637Z,97152.84
2023-11-15T09:55:36.139Z,97156.38
2023-11-15T09:58:02.920Z,97163.66
2023-11-15T10:00:30.551Z,97165.63
2023-11-15T10:02:57.800Z,97167.97
2023-11-15T10:05:27.848Z,97162.66
2023-11-15T10:08:12.151Z,97166.41
2023-11-15T10:10:41.559Z,97169.13
2023-11-15T10:13:17.184Z,97159.56
2023-11-15T10:15:47.790Z,97164.84
2023-11-15T10:18:16.272Z,97164.44
2023-11-15T10:20:44.112Z,97169.63
2023-11-15T10:23:12.745Z,97167.03
2023-11-15T10:26:01.331Z,97160.50
2023-11-15T10:28:35.049Z,97155.63
2023-11-15T10:31:06.322Z,97161.22
2023-11-15T10:33:39.042Z,97153.31
2023-11-15T10:36:16.014Z,97156.66
2023-11-15T10:38:47.403Z,97154.66
2023-11-15T10:41:18.029Z,97151.63
2023-11-15T10:43:47.940Z,97156.06
2023-11-15T10:46:16.268Z,97159.25
2023-11-15T10:48:46.200Z,97154.53
2023-11-15T10:51:20.556Z,97159.44
2023-11-15T10:53:47.769Z,97144.31
2023-11-15T10:56:16.725Z,97155.00
2023-11-15T10:58:47.956Z,97152.53
2023-11-15T11:01:14.947Z,97168.75
2023-11-15T11:03:42.493Z,97154.00
2023-11-15T11:06:37.784Z,97164.78
2023-11-15T11:09:27.158Z,97155.63
2023-11-15T11:12:05.022Z,97151.19
2023-11-15T11:14:32.129Z,97153.66
2023-11-15T11:16:59.736Z,97142.94
2023-11-15T11:19:29.820Z,97146.91
2023-11-15T11:22:09.036Z,97146.47
2023-11-15T11:24:37.149Z,97147.53
2023-11-15T11:27:12.699Z,97146.91
2023-11-15T11:30:06.909Z,97152.09
2023-11-15T11:32:33.566Z,97140.31
2023-11-15T11:35:06.265Z,97155.47
2023-11-15T11:37:45.272Z,97142.00
2023-11-15T11:40:14.946Z,97140.16
2023-11-15T11:42:44.543Z,97136.03
2023-11-15T11:45:13.153Z,97142.63
2023-11-15T11:47:40.681Z,97142.34
2023-11-15T11:50:08.177Z,97151.97
2023-11-15T11:52:37.741Z,97143.25
2023-11-15T11:55:06.152Z,97147.38
2023-11-15T11:57:32.525Z,97152.72
2023-11-15T12:00:05.837Z,97144.94
2023-11-15T12:02:36.325Z,97139.44
2023-11-15T12:05:03.278Z,97134.66
2023-11-15T12:07:30.301Z,97139.84
2023-11-15T12:10:04.751Z,97144.00
2023-11-15T12:12:31.963Z,97138.78
2023-11-15T12:15:00.970Z,97136.03
2023-11-15T12:17:44.792Z,97132.97
2023-11-15T12:20:13.464Z,97131.47
2023-11-15T12:22:43.346Z,97129.59
2023-11-15T12:25:14.737Z,97129.31
2023-11-15T12:27:46.280Z,97122.88
2023-11-15T12:30:12.849Z,97131.00
2023-11-15T12:32:45.525Z,97118.56
2023-11-15T12:35:13.740Z,97121.66
2023-11-15T12:37:40.627Z,97115.84
2023-11-15T12:40:23.082Z,97110.16
2023-11-15T12:42:49.579Z,97109.41
2023-11-15T12:45:32.841Z,97117.53
2023-11-15T12:48:03.756Z,97117.06
2023-11-15T12:50:30.705Z,97129.75
2023-11-15T12:53:07.322Z,97162.13
2023-11-15T12:55:50.897Z,97203.09
2023-11-15T12:58:43.557Z,97204.25
2023-11-15T13:01:16.202Z,97202.22
2023-11-15T13:03:43.584Z,97186.63
2023-11-15T13:06:13.250Z,97182.41
2023-11-15T13:08:49.672Z,97176.13
2023-11-15T13:11:19.772Z,97163.50
2023-11-15T13:13:48.645Z,97170.78
2023-11-15T13:16:19.273Z,97173.94
2023-11-15T13:18:48.581Z,97177.47
2023-11-15T13:21:16.981Z,97178.63
2023-11-15T13:23:44.583Z,97170.00
2023-11-15T13:26:14.896Z,97160.72
2023-11-15T13:28:45.935Z,97155.56
2023-11-15T13:31:16.098Z,97157.72
2023-11-15T13:33:48.699Z,97147.66
2023-11-15T13:36:17.483Z,97158.22
2023-11-15T13:38:43.969Z,97147.38
2023-11-15T13:41:11.775Z,97151.13
2023-11-15T13:43:41.786Z,97146.94
2023-11-15T13:46:09.719Z,97145.59
2023-11-15T13:48:37.344Z,97149.47
2023-11-15T13:51:04.624Z,97141.69
2023-11-15T13:53:30.972Z,97155.03
2023-11-15T13:55:57.288Z,97160.53
2023-11-15T13:58:23.659Z,97152.75
2023-11-15T14:00:53.166Z,97158.78
2023-11-15T14:03:19.832Z,97164.47
2023-11-15T14:05:46.477Z,97164.19
2023-11-15T14:08:13.773Z,97168.38
2023-11-15T14:10:41.437Z,97173.69
2023-11-15T14:13:08.175Z,97181.19
2023-11-15T14:15:38.577Z,97176.56
2023-11-15T14:18:05.226Z,97179.16
2023-11-15T14:20:32.545Z,97169.38
2023-11-15T14:22:59.448Z,97175.03
2023-11-15T14:25:32.859Z,97182.53
2023-11-15T14:28:04.060Z,97183.75
2023-11-15T14:30:30.395Z,97186.63
2023-11-15T14:32:57.620Z,97192.00
2023-11-15T14:35:26.453Z,97188.06
2023-11-15T14:37:54.529Z,97199.38
2023-11-15T14:40:23.675Z,97205.06
2023-11-15T14:42:53.186Z,97208.59
2023-11-15T14:45:20.539Z,97210.91
2023-11-15T14:47:47.199Z,97212.63
2023-11-15T14:50:15.545Z,97216.78
2023-11-15T14:52:53.969Z,97219.75
2023-11-15T14:55:27.666Z,97218.59
2023-11-15T14:57:54.203Z,97222.41
2023-11-15T15:00:23.462Z,97225.88
2023-11-15T15:02:50.289Z,97228.34
2023-11-15T15:05:17.303Z,97222.50
2023-11-15T15:07:45.552Z,97229.69
2023-11-15T15:10:13.138Z,97242.63
2023-11-15T15:12:43.991Z,97238.59
2023-11-15T15:15:13.184Z,97236.97
2023-11-15T15:17:42.718Z,97238.69
2023-11-15T15:20:09.906Z,97240.88
2023-11-15T15:22:38.253Z,97247.56
2023-11-15T15:25:06.160Z,97255.72
2023-11-15T15:27:32.861Z,97253.06
2023-11-15T15:30:00.945Z,97249.00
2023-11-15T15:32:28.251Z,97251.66
2023-11-15T15:34:54.814Z,97252.78
2023-11-15T15:37:21.210Z,97261.94
2023-11-15T15:39:47.535Z,97258.53
2023-11-15T15:42:13.960Z,97262.09
2023-11-15T15:44:41.224Z,97264.47
2023-11-15T15:47:07.562Z,97274.13
2023-11-15T15:49:33.965Z,97275.28
2023-11-15T15:52:00.490Z,97280.22
2023-11-15T15:54:27.193Z,97288.13
2023-11-15T15:56:53.596Z,97291.22
2023-11-15T15:59:19.935Z,97296.00
2023-11-15T16:01:46.325Z,97281.63
2023-11-15T16:04:14.587Z,97293.88
2023-11-15T16:06:42.086Z,97283.78
2023-11-15T16:09:08.582Z,97289.56
2023-11-15T16:11:34.960Z,97294.56
2023-11-15T16:14:02.066Z,97301.91
2023-11-15T16:16:28.460Z,97300.38
2023-11-15T16:18:54.864Z,97303.75
2023-11-15T16:21:21.228Z,97303.78
2023-11-15T16:23:47.670Z,97310.28
2023-11-15T16:26:16.488Z,97316.69
2023-11-15T16:28:42.809Z,97315.44
2023-11-15T16:31:09.156Z,97312.00
2023-11-15T16:33:35.577Z,97313.59
2023-11-15T16:36:01.953Z,97314.84
2023-11-15T16:38:28.310Z,97319.75
2023-11-15T16:40:55.629Z,97318.19
2023-11-15T16:43:23.963Z,97322.41
2023-11-15T16:45:50.350Z,97326.25
2023-11-15T16:48:16.770Z,97315.69
2023-11-15T16:50:47.396Z,97316.88
2023-11-15T16:53:13.801Z,97330.88
2023-11-15T16:55:41.470Z,97317.25
2023-11-15T16:58:07.815Z,97322.13
2023-11-15T17:00:34.338Z,97327.28
2023-11-15T17:03:01.755Z,97340.94
2023-11-15T17:05:28.272Z,97341.50
2023-11-15T17:07:54.727Z,97337.38
2023-11-15T17:10:22.975Z,97347.09
2023-11-15T17:12:49.342Z,97343.88
2023-11-15T17:15:16.128Z,97340.78
2023-11-15T17:17:42.563Z,97341.31
2023-11-15T17:20:09.646Z,97339.91
2023-11-15T17:22:36.758Z,97345.25
2023-11-15T17:25:15.259Z,97341.84
2023-11-15T17:27:46.861Z,97331.34
2023-11-15T17:30:13.287Z,97332.38
2023-11-15T17:32:39.835Z,97344.00
2023-11-15T17:35:07.370Z,97333.75
2023-11-15T17:37:34.372Z,97333.34
2023-11-15T17:40:00.995Z,97331.56
2023-11-15T17:42:27.725Z,97334.16
2023-11-15T17:44:56.986Z,97342.00
2023-11-15T17:47:25.174Z,97334.25
2023-11-15T17:49:52.131Z,97340.19
2023-11-15T17:52:18.594Z,97337.25
2023-11-15T17:54:44.928Z,97335.03
2023-11-15T17:57:13.600Z,97334.53
2023-11-15T17:59:40.321Z,97332.44
2023-11-15T18:02:06.667Z,97328.28
2023-11-15T18:04:33.062Z,97342.72
2023-11-15T18:06:59.485Z,97337.25
2023-11-15T18:09:25.923Z,97336.13
2023-11-15T18:11:52.383Z,97345.81
2023-11-15T18:14:18.982Z,97343.28
2023-11-15T18:16:46.333Z,97357.00
2023-11-15T18:19:13.006Z,97351.44
2023-11-15T18:21:39.503Z,97357.31
2023-11-15T18:24:06.702Z,97341.00
2023-11-15T18:26:33.522Z,97350.38
2023-11-15T18:29:01.433Z,97356.53
2023-11-15T18:31:29.270Z,97333.72
2023-11-15T18:33:57.890Z,97339.25
2023-11-15T18:36:25.418Z,97337.50
2023-11-15T18:38:52.750Z,97344.00
2023-11-15T18:41:19.222Z,97346.81
2023-11-15T18:43:46.637Z,97349.56
2023-11-15T18:46:13.030Z,97353.81
2023-11-15T18:48:39.799Z,97333.03
2023-11-15T18:51:06.635Z,97343.59
2023-11-15T18:53:33.098Z,97350.97
2023-11-15T18:56:01.008Z,97347.59
2023-11-15T18:58:28.366Z,97355.44
2023-11-15T19:00:55.192Z,97356.63
2023-11-15T19:03:21.688Z,97355.22
2023-11-15T19:05:48.124Z,97353.16
2023-11-15T19:08:15.466Z,97348.28
2023-11-15T19:10:41.827Z,97351.00
2023-11-15T19:13:08.179Z,97346.59
2023-11-15T19:15:35.103Z,97340.53
2023-11-15T19:18:01.740Z,97350.03
2023-11-15T19:20:29.978Z,97342.81
2023-11-15T19:22:56.544Z,97353.09
2023-11-15T19:25:23.627Z,97353.41
2023-11-15T19:27:50.665Z,97345.06
2023-11-15T19:30:18.415Z,97345.34
2023-11-15T19:32:44.861Z,97339.47
2023-11-15T19:35:11.930Z,97338.19
2023-11-15T19:37:38.958Z,97349.06
2023-11-15T19:40:09.756Z,97338.50
2023-11-15T19:42:37.580Z,97343.94
2023-11-15T19:45:05.451Z,97342.59
2023-11-15T19:47:31.861Z,97331.84
2023-11-15T19:49:59.272Z,97327.59
2023-11-15T19:52:25.677Z,97332.59
2023-11-15T19:54:54.300Z,97349.16
2023-11-15T19:57:22.088Z,97345.63
2023-11-15T19:59:49.480Z,97347.56
2023-11-15T20:02:16.128Z,97342.44
2023-11-15T20:04:42.614Z,97341.03
2023-11-15T20:07:10.500Z,97344.44
2023-11-15T20:09:37.789Z,97346.59
2023-11-15T20:12:04.462Z,97346.94
2023-11-15T20:14:30.821Z,97350.00
2023-11-15T20:16:57.269Z,97341.03
2023-11-15T20:19:23.648Z,97347.00
2023-11-15T20:21:51.710Z,97357.09
2023-11-15T20:24:21.963Z,97350.16
2023-11-15T20:26:49.453Z,97360.47
2023-11-15T20:29:16.884Z,97357.53
2023-11-15T20:31:43.294Z,97339.16
2023-11-15T20:34:09.948Z,97354.63
2023-11-15T20:36:39.744Z,97360.59
2023-11-15T20:39:21.613Z,97352.69
2023-11-15T20:41:51.008Z,97358.59
2023-11-15T20:44:18.155Z,97357.63
2023-11-15T20:46:46.116Z,97367.19
2023-11-15T20:49:13.393Z,97361.28
2023-11-15T20:51:48.524Z,97359.19
2023-11-15T20:54:21.755Z,97356.59
2023-11-15T20:56:48.120Z,97368.41
2023-11-15T20:59:14.463Z,97357.25
2023-11-15T21:01:41.114Z,97358.84
2023-11-15T21:04:09.632Z,97353.78
2023-11-15T21:06:36.918Z,97356.31
2023-11-15T21:09:07.116Z,97360.97
2023-11-15T21:11:33.530Z,97350.16
2023-11-15T21:14:00.933Z,97350.81
2023-11-15T21:16:27.441Z,97357.28
2023-11-15T21:18:53.797Z,97357.34
2023-11-15T21:21:20.139Z,97354.25
2023-11-15T21:23:47.097Z,97359.97
2023-11-15T21:26:13.462Z,97351.00
2023-11-15T21:28:42.182Z,97355.91
2023-11-15T21:31:09.338Z,97356.41
2023-11-15T21:33:35.766Z,97362.69
2023-11-15T21:36:03.941Z,97363.22
2023-11-15T21:38:30.320Z,97379.28
2023-11-15T21:40:56.658Z,97370.25
2023-11-15T21:43:23.738Z,97365.22
2023-11-15T21:45:50.106Z,97364.97
2023-11-15T21:48:16.520Z,97378.13
2023-11-15T21:50:44.172Z,97370.66
2023-11-15T21:53:10.518Z,97360.34
2023-11-15T21:55:36.870Z,97363.75
2023-11-15T21:58:03.702Z,97365.34
2023-11-15T22:00:30.144Z,97355.75
2023-11-15T22:02:57.071Z,97366.91
2023-11-15T22:05:23.649Z,97358.13
2023-11-15T22:07:49.991Z,97359.47
2023-11-15T22:10:16.400Z,97356.69
2023-11-15T22:12:43.455Z,97356.19
2023-11-15T22:15:11.370Z,97350.06
2023-11-15T22:17:39.696Z,97353.19
2023-11-15T22:20:07.337Z,97348.31
2023-11-15T22:22:33.682Z,97333.38
2023-11-15T22:25:00.413Z,97343.50
2023-11-15T22:27:26.757Z,97337.91
2023-11-15T22:29:53.100Z,97336.63
2023-11-15T22:32:19.747Z,97351.56
2023-11-15T22:34:46.240Z,97335.41
2023-11-15T22:37:13.013Z,97345.69
2023-11-15T22:39:39.341Z,97351.66
2023-11-15T22:42:06.053Z,97352.44
2023-11-15T22:44:32.473Z,97340.59
2023-11-15T22:46:58.809Z,97346.53
2023-11-15T22:49:25.259Z,97351.94
2023-11-15T22:51:52.254Z,97352.72
2023-11-15T22:54:19.173Z,97347.31
2023-11-15T22:56:45.635Z,97338.31
2023-11-15T22:59:11.994Z,97332.41
2023-11-15T23:01:38.752Z,97347.34
2023-11-15T23:04:08.091Z,97347.84
2023-11-15T23:06:35.295Z,97336.03
2023-11-15T23:09:05.582Z,97342.19
2023-11-15T23:11:32.026Z,97345.78
2023-11-15T23:13:58.426Z,97340.66
2023-11-15T23:16:25.708Z,97330.09
2023-11-15T23:18:54.581Z,97330.38
2023-11-15T23:21:21.033Z,97336.53
2023-11-15T23:23:47.455Z,97346.59
2023-11-15T23:26:13.847Z,97343.25
2023-11-15T23:28:40.227Z,97350.97
2023-11-15T23:31:07.718Z,97348.94
2023-11-15T23:33:34.302Z,97358.19
2023-11-15T23:36:00.992Z,97350.47
2023-11-15T23:38:30.249Z,97346.34
2023-11-15T23:40:57.501Z,97354.31
2023-11-15T23:43:29.651Z,97353.81
2023-11-15T23:45:56.196Z,97346.59
2023-11-15T23:48:22.617Z,97349.97
2023-11-15T23:50:49.285Z,97356.13
2023-11-15T23:53:15.697Z,97355.13
2023-11-15T23:55:42.135Z,97357.94
2023-11-15T23:58:09.843Z,97346.63
